Timeline UpdatesTrip UpdatesNews PostsPvt PostsTravel TipsAdmin PostsConv PostsFollowed PostsChat RequestsBlog PostsPNR Posts

Disclaimer
Search
 
 
Sat Aug 23, 2014 14:58:23 ISTHomeTrainsΣChainsAtlasPNRForumGalleryNewsFAQTripsMembersLoginFeedback
No Recent News for this Train
Other Trains in the News **new
Latest...
..
Tue Jul 15, 2014 (10:55AM)
⇐ Return Journey: Train# 18238

18237/Chhattisgarh Express

May 08 2014 (6:20PM)
Change Departure Station:
Change Arrival Station:
Post a Train Travel TipPost a Train Travel Tip **new
Post a Comment/Question/Picture/VideoPost a Comment/Question/Picture/Video
Inaugural Run
Sat Jan 01, 1977
Pantry/Catering
✓ Pantry Car Avbl
✓ Catering Avbl
Food is of Average Quality
Loco/Rake Reversals
NGP/Nagpur Junction (8);
RSA - Rake Sharing
58209
Rake/Coach Composition
LOCO-SLR-GS-GS-S1-S2-S3-S4-S5-S6-S7-S8-S9-S10-PC-S11-S12-B3-B2-B1-A1-HA1-GS-SLR-SP1
Loco
BSP - NGP --- ET WAP4 NGP - NZM --- AJNI...
Read more...
WAP7 NZM - ASR ---- TKD WDP4 Author: Mahesh Gupta Entry# 295353
News    PNR    Forum    Time-Table    Availability    Fare Chart    Map    Arr/Dep History    Trips    Gallery    ΣChains    X/O    Timeline    
Travel Time: 1h 16m    2 halts    Distance: 73 km    Avg Speed: 57 km/hr
Type: Mail/Express
Zone: SECR/South East Central
Departs @ 18:02 (Avg 26m late)
Platform# ???
SMTWTFS
Dongargarh/DGG 
Arrives @ 19:18 (Avg 23m late)
Platform# ???
SMTWTFS
Gondia Junction/G 

2 halts. 7 intermediate Stations between Dongargarh and Gondia Junction

Show ALL intermediate Stations  Show Old Time-Table

#CodeStation NameX/OArrivesAvgDepartsAvgHaltPFDay#KmSpeedElevZoneAddress
1BSPBilaspur Junction (8)  -14:15+231-209.449271mSECRBilaspur, Chhattisgarh
2BYLBelha  14:34+814:35+91m--1-193.877269mSECRCollege Road, Chhattisgarh
3BYTBhatapara (4)X  14:59+1315:00+141m--1-163.271270mSECRBanjari Road, Chhattisgarh
4HNHathbandhX  15:13+1415:14+151m--1-147.864283mSECRRaipur, Chhattisgarh
5TLDTilda (3)X  15:24+1515:25+161m--1-137.151291mSECRBanjari Rd, Chhattisgarh
6RRaipur Junction (6)XO  16:10+1316:20+1210m--1-98.980297mSECRRaipur, Chhattisgarh
7BPHBBhilai Power House (3)  16:41+516:42+51m--1-70.919312mSECRBhilai, Chhattisgarh
8DURGDurg Junction (6)X  17:10+717:15+85m11-62.087299mSECRPh: 91-788-2322059, Chhattisgarh
9RJNRaj Nandgaon (3)X  17:36+1817:38+182m--1-31.582313mSECRRajnandgaon, Chhattisgarh
10DGG»Dongargarh (2)»  18:01+2418:02+261m--10.065353mSECRDongargarh, Chhattisgarh
11SKSSalekasa (2)  18:35+3118:36+321m--135.774312mSECRRajnandgaon, Chhattisgarh
12AGNAmgaon (2)  18:48+3218:49+331m--150.547317mSECRGondia, Maharashtra
13G•Gondia Junction (7)•  19:18+2319:23+235m--173.388316mSECRGondia 441601, Maharashtra
14TROTirora (3)  19:43+2819:44+291m--1102.668282mSECRDist Gondiya, Maharashtra
15TMRTumsar Road (3)X  20:02+2620:03+271m--1122.967267mSECRBhandara, Maharashtra
16BRDBhandara Road (2)  20:19+2720:20+271m--1140.985266mSECRState Highway 252, Maharashtra
17KPKamptee (3)  20:54+2820:55+291m--1188.819290mSECRMH 441001, Maharashtra
18NGPNagpur Junction (8)X21:40+1322:05+1625m31203.183314mCRNagpur 440001, Maharashtra
19KATLKatol (2)X  22:49+2622:50+281m--1264.079 CRKatol, Maharashtra
20NRKRNarkher Junction (4)  23:09+3223:10+341m--1289.158411mCRNarkher, Maharashtra
21PARPandhurna (2)  23:29+3223:30+361m--1307.548481mCRDistt: Chhindwara, Madhya Pradesh
22MTYMultai (2)X  00:21+3500:22+361m--2348.360762mCRMultai, Madhya Pradesh
23AMLAAmla Junction (5)XO  00:45+3901:20+3135m--2371.153733mCRAmla Distt. Betul, Madhya Pradesh
24BZUBetul (3)  01:46+2701:47+311m--2394.050644mCRBetul, Madhya Pradesh
25GDYAGhoradongri (3)XO  02:30+3102:31+321m--2429.939 CRBetul, Madhya Pradesh
26ETItarsi Junction (7)  04:20+1604:25+245m--2500.357329mWCRItarsi 461111, Madhya Pradesh
27HBDHoshangabad (2)X  04:44+2704:45+281m--2518.449308mWCRHoshangabad, Madhya Pradesh
28ODGObaidulla Ganj  05:31+3905:32+401m22556.154 WCRObaidullaganj Raisen Dist., Madhya Pradesh
29HBJBhopal HabibGanj (5)XO  06:05+3806:06+441m42585.816496mWCRHabibGanj, Madhya Pradesh
30BPLBhopal Junction (6)X  06:30+3806:35+395m22592.071497mWCRBhopal, Madhya Pradesh
31BHSVidisha (3)X  07:20+3907:22+392m12645.584 WCRVidisha, Madhya Pradesh
32BAQGanj Basoda (4)X  07:50+4507:51+471m12684.945 WCRVidisha, Madhya Pradesh
33MABAMandi Bamora (3)XO  08:29+3308:30+341m12713.423413mWCRState Highway 14, Madhya Pradesh
34BINABina Junction (4)X  09:15+1109:20+145m22730.656414mWCRJn Pt - KATNI/GUNA/ BPL/JHS, Madhya Pradesh
35DUADhaura (3)XO  09:57+1609:58+181m--2765.250407mNCRDhaura Tanda, Madhya Pradesh
36JLNJakhalaun (3)  10:12+1610:14+162m--2776.8144394mNCRLalitpur(05176-272220), Uttar Pradesh
37LARLalitpur (3)  10:21+2410:22+251m32793.586373mNCRLalitpur, Uttar Pradesh
38TBTTalbahat (4)O  10:50+3110:52+312m--2833.451314mNCRKhaniyadhana Station Rd, Madhya Pradesh
39BZYBasai (3)X  11:07+2911:08+301m22846.252287mNCR07522289600(Gate ManMob. - 9452701575), Madhya Pradesh
40BABBabina (3)  11:22+3011:23+321m22858.333285mNCRBabina, Uttar Pradesh
41JHSJhansi Junction (7)X  12:10+1812:18+238m42883.865259mNCRJhansi, Uttar Pradesh
42DAADatia (2)X  12:41+2612:42+271m12908.953264mNCRDatia, Madhya Pradesh
43SORSonagir (2)X  12:55+2612:56+301m--2920.466211mNCRDatia, Madhya Pradesh
44DBADabra (3)X  13:13+3213:14+341m12939.269 NCRDabra(District-Gwalior), Madhya Pradesh
45GWLGwalior Junction (4)X  13:51+4113:56+445m22981.572214mNCRGwalior, Madhya Pradesh
46BAOBanmor  14:12+5014:13+521m--21000.855189mNCRGwalior, Madhya Pradesh
47MRAMorena (3)  14:34+4714:35+491m221020.173176mNCRMorena, Madhya Pradesh
48DHODholpur Junction (3)X  14:57+4814:58+491m121046.951177mNCRDholpur, Rajasthan
49AGCAgra Cantt. (6)XO  16:00+4216:08+458m221099.530174mNCRAgra, Uttar Pradesh
50RKMRaja Ki Mandi (4)  16:16+5016:17+501m121103.662170mNCRAgra, Uttar Pradesh
51MTJMathura Junction (10)X  17:05+5117:10+515m221153.281179mNCRMathura, Uttar Pradesh
52CHJChata (4)X  17:33+5417:34+551m221184.451 NCRChhata, Uttar Pradesh
53KSVKosi Kalan (3)X  17:46+5517:47+571m121194.749189mNCRKosi Kalan, Uttar Pradesh
54PWLPalwal (8)  18:39+3618:40+381m--21237.167200mNRPalwal, Haryana
55BVHBallabgarh (5)  18:59+4519:00+461m--21258.340203mNRFaridabad, Haryana
56FDBFaridabad (4)X  19:12+4719:13+481m221266.439206mNRold Faridabad, Haryana
57NZMDelhi Hazrat Nizamuddin (7)O  19:45+5420:15+5330m121287.225209mNRNew Delhi 110013, Delhi NCT
58SBBSahibabad Junction (5)XO  20:53+4720:54+481m--21303.229209mNRGhaziabad, Uttar Pradesh
59GZBGhaziabad Junction (6)  21:08+4821:10+482m121309.962217mNRGhaziabad, Uttar Pradesh
60MUDMuradnagar (2)X  21:27+5821:28+591m--21327.655220mNRGhaziabad, Uttar Pradesh
61MDNRModinagar (2)X  21:39+5821:40+591m--21337.758221mNRGhaziabad, Uttar Pradesh
62MTCMeerut City Junction (6)  22:00+1:0122:05+1:005m321357.143229mNRMeerut, Uttar Pradesh
63MUTMeerut Cantt. (2)  22:11+1:0222:12+1:031m--21361.567230mNRMeerut, Uttar Pradesh
64KATKhatauli (2)  22:38+1:0122:39+1:011m221390.667239mNRKhatauli, Uttar Pradesh
65MOZMuzaffarnagar (3)  22:59+1:0223:00+1:021m221412.769247mNRMuzaffarNagar, Uttar Pradesh
66DBDDeoband (2)  23:21+5623:22+561m221436.835258mNRSaharanpur, Uttar Pradesh
67SRESaharanpur Junction (6)X  00:20+5600:30+5810m431471.062276mNRSaharanpur, Uttar Pradesh
68JUDYamunanagar-Jagadhri (3)X  00:59+1:0301:00+1:051m331501.138275mNRYamunanagar, Haryana
69JUDWJagadhri Workshop (2)X  01:08+1:0401:09+1:051m231506.171280mNRRailway Workshop Road, Haryana
70RAABarara (2)  01:27+1:0501:28+1:061m231527.340279mNRBarara, Haryana
71UMBAmbala Cantt. Junction (7)X  02:05+5802:15+1:0010m231552.132278mNRAmbala 133001, Haryana
72UBCAmbala City (3)X  02:29+1:0002:30+1:011m331559.772273mNRNH-1, Haryana
73RPJRajpura Junction (3)X  02:47+1:0102:48+1:031m131580.239272mNRNH-1, Punjab
74SIRSirhind Junction (3)XO  03:26+4603:28+472m131605.059271mNRSirhind, Punjab
75GVGMandi Gobindgarh (2)  03:38+4603:39+471m131614.841268mNRMandi Gobindgarh, Punjab
76KNNKhanna (3)XO  03:51+4503:52+461m131622.968269mNRNH 1, Punjab
77LDHLudhiana Junction (7)X  04:30+1:0204:40+1:2210m231665.733246mNRLudhiana 141001, Punjab
78PHRPhillaur Junction (3)O  05:04+1:1605:05+1:181m231678.871246mNRPhillaur, Punjab
79PGWPhagwara Junction (3)O  05:24+1:1805:25+1:191m231701.454245mNRPhagwara, Punjab
80JRCJalandhar Cantt. Junction (3)  05:43+1:1605:45+1:162m131717.729239mNRNear Rama Mandi, Punjab
81JUCJalandhar City Junction (5)X  05:55+1:1506:00+1:185m131722.546239mNRJalandhar 144001, Punjab
82KREKartarpur (2)X  06:19+1:1306:20+1:141m231737.248236mNRKartarpur, Punjab
83BEASBeas Junction (2)  06:47+1:0806:48+1:091m131758.675238mNRBeas, Punjab
84JNLJandiala (2)X  07:07+1:0807:08+1:091m131782.519238mNRJandiala, Punjab
85ASRAmritsar Junction (5)  08:10+33-331801.7-233mNRAmritsar 143002, Punjab
Scroll to Top
Scroll to Bottom